Time;durP1;ratioP1;P1;durP2;ratioP2;P2;SDS_P1;SDS_P2;PMS_P1;PMS_P2;Temp;Humidity;BMP_temperature;BMP_pressure;BME280_temperature;BME280_humidity;BME280_pressure;Samples;Min_cycle;Max_cycle;Signal;HPM_P1;HPM_P2
2023/08/31 00:01:40;;;;;;;8.00;4.40;;;14.00;61.30;;;;;;5035852;28;20873;-74
2023/08/31 00:04:14;;;;;;;7.68;4.40;;;14.10;60.20;;;;;;5019075;28;20900;-74
2023/08/31 00:06:40;;;;;;;10.63;4.80;;;14.10;59.30;;;;;;5041301;28;20375;-75
2023/08/31 00:09:09;;;;;;;9.38;4.28;;;14.00;60.30;;;;;;5042980;28;20379;-75
2023/08/31 00:11:38;;;;;;;12.55;5.30;;;14.00;60.50;;;;;;5046227;28;20383;-75
2023/08/31 00:14:04;;;;;;;10.03;4.40;;;13.90;61.80;;;;;;5050743;28;20510;-75
2023/08/31 00:16:30;;;;;;;9.70;4.10;;;14.00;60.30;;;;;;5053648;28;20418;-74
2023/08/31 00:18:56;;;;;;;10.60;4.30;;;14.00;60.80;;;;;;5053627;28;20450;-74
2023/08/31 00:21:22;;;;;;;9.25;4.50;;;14.00;61.50;;;;;;5051383;28;20391;-75
2023/08/31 00:23:48;;;;;;;12.98;4.95;;;13.90;62.90;;;;;;5051049;28;20417;-75
2023/08/31 00:26:17;;;;;;;11.95;4.78;;;13.90;62.80;;;;;;5048837;28;20383;-74
2023/08/31 00:28:44;;;;;;;9.68;4.50;;;13.90;63.10;;;;;;5024172;28;20899;-74
2023/08/31 00:31:10;;;;;;;8.23;4.38;;;13.80;64.40;;;;;;5024098;28;20418;-74
2023/08/31 00:33:37;;;;;;;8.85;3.95;;;13.70;65.50;;;;;;5043740;28;20403;-75
2023/08/31 00:36:03;;;;;;;8.88;4.20;;;13.90;63.10;;;;;;5025716;28;20402;-75
2023/08/31 00:38:29;;;;;;;8.90;4.30;;;13.90;62.60;;;;;;5050212;28;20380;-75
2023/08/31 00:40:55;;;;;;;8.40;4.63;;;13.80;62.90;;;;;;5046890;28;20414;-75
2023/08/31 00:43:20;;;;;;;8.63;4.50;;;13.80;63.50;;;;;;5043420;28;20403;-75
2023/08/31 00:45:49;;;;;;;8.63;4.20;;;13.70;63.50;;;;;;5038658;28;20391;-76
2023/08/31 00:48:19;;;;;;;11.32;4.43;;;13.60;65.90;;;;;;5034627;28;20399;-76
2023/08/31 00:50:45;;;;;;;9.88;4.13;;;13.50;67.00;;;;;;5052507;28;20403;-75
2023/08/31 00:53:11;;;;;;;9.07;4.88;;;13.50;68.60;;;;;;5055028;28;20403;-75
2023/08/31 00:55:39;;;;;;;9.07;4.50;;;13.50;68.30;;;;;;5053159;28;20435;-75
2023/08/31 00:58:06;;;;;;;9.63;4.85;;;13.40;68.90;;;;;;5052674;28;20383;-76
2023/08/31 01:01:14;;;;;;;10.85;5.30;;;13.20;72.20;;;;;;5053298;28;20422;-75
2023/08/31 01:03:43;;;;;;;12.35;5.53;;;13.20;73.10;;;;;;5053736;28;20371;-75
2023/08/31 01:06:47;;;;;;;9.40;4.90;;;13.10;73.00;;;;;;5053986;28;20387;-75
2023/08/31 01:09:39;;;;;;;8.38;5.15;;;13.30;71.30;;;;;;5049197;28;20405;-75
2023/08/31 01:12:11;;;;;;;10.18;4.97;;;13.10;73.70;;;;;;5046820;28;20403;-75
2023/08/31 01:14:47;;;;;;;9.32;5.05;;;13.00;74.80;;;;;;5046701;28;20387;-75
2023/08/31 01:17:15;;;;;;;11.52;5.20;;;13.10;73.70;;;;;;5047104;28;20742;-76
2023/08/31 01:19:46;;;;;;;11.53;4.93;;;13.10;73.50;;;;;;5047043;28;20447;-75
2023/08/31 01:22:27;;;;;;;12.98;5.35;;;12.90;75.70;;;;;;5050092;28;20394;-76
2023/08/31 01:24:53;;;;;;;13.93;5.60;;;12.80;77.70;;;;;;5047867;28;20386;-76
2023/08/31 01:27:20;;;;;;;11.38;5.57;;;12.80;78.80;;;;;;5055731;28;20409;-74
2023/08/31 01:29:45;;;;;;;14.07;5.90;;;12.80;78.30;;;;;;5053035;28;20440;-74
2023/08/31 01:32:11;;;;;;;9.97;6.13;;;12.90;77.10;;;;;;5053935;28;20407;-76
2023/08/31 01:34:37;;;;;;;7.03;4.70;;;12.90;75.80;;;;;;5053456;28;20371;-75
2023/08/31 01:37:17;;;;;;;10.30;5.23;;;12.90;74.90;;;;;;5054138;28;20430;-75
2023/08/31 01:40:14;;;;;;;11.50;5.22;;;13.00;73.00;;;;;;5054595;28;20379;-75
2023/08/31 01:42:42;;;;;;;15.15;5.30;;;13.00;74.10;;;;;;5051783;28;20391;-76
2023/08/31 01:45:10;;;;;;;10.50;5.60;;;12.90;74.00;;;;;;5037817;28;20402;-76
2023/08/31 01:47:36;;;;;;;10.68;5.55;;;12.80;74.90;;;;;;5033377;28;20394;-76
2023/08/31 01:50:02;;;;;;;8.15;4.60;;;12.80;75.30;;;;;;5033318;28;20803;-76
2023/08/31 01:52:27;;;;;;;10.32;5.00;;;12.80;75.10;;;;;;5033302;28;20411;-76
2023/08/31 01:54:53;;;;;;;8.35;5.10;;;12.80;73.10;;;;;;5033869;28;20389;-74
2023/08/31 01:57:18;;;;;;;11.90;5.13;;;12.90;71.90;;;;;;5033174;28;20475;-74
2023/08/31 01:59:44;;;;;;;9.00;4.67;;;12.90;72.30;;;;;;5033017;28;20837;-74
2023/08/31 02:02:09;;;;;;;8.60;4.90;;;12.80;74.00;;;;;;5032981;28;20419;-75
2023/08/31 02:04:35;;;;;;;8.53;4.73;;;12.80;73.00;;;;;;5033346;28;20495;-75
2023/08/31 02:07:01;;;;;;;10.23;5.20;;;12.80;73.00;;;;;;5033011;28;20421;-74
2023/08/31 02:09:26;;;;;;;8.75;4.70;;;12.70;73.70;;;;;;5033005;28;20462;-75
2023/08/31 02:11:52;;;;;;;9.20;5.20;;;12.60;74.80;;;;;;5032607;28;20414;-75
2023/08/31 02:14:18;;;;;;;6.28;4.80;;;12.70;73.50;;;;;;5015006;28;20407;-74
2023/08/31 02:16:44;;;;;;;6.65;4.57;;;12.70;73.30;;;;;;5015143;28;20383;-75
2023/08/31 02:19:09;;;;;;;8.45;4.65;;;12.60;73.70;;;;;;5032867;28;20430;-76
2023/08/31 02:21:35;;;;;;;8.50;4.82;;;12.60;74.30;;;;;;5032570;28;20379;-74
2023/08/31 02:24:00;;;;;;;10.20;5.10;;;12.60;75.00;;;;;;5038173;28;20387;-74
2023/08/31 02:26:26;;;;;;;6.80;4.43;;;12.50;77.00;;;;;;5033661;28;20391;-75
2023/08/31 02:28:52;;;;;;;6.50;4.80;;;12.40;78.30;;;;;;5032915;28;20390;-74
2023/08/31 02:31:18;;;;;;;10.90;4.77;;;12.40;78.40;;;;;;5032393;28;20897;-74
2023/08/31 02:33:45;;;;;;;8.82;4.60;;;12.40;79.30;;;;;;5031677;28;20434;-74
2023/08/31 02:36:11;;;;;;;9.68;4.90;;;12.30;81.90;;;;;;5014782;28;20862;-74
2023/08/31 02:38:36;;;;;;;9.17;4.70;;;12.30;82.00;;;;;;5032574;28;20426;-74
2023/08/31 02:41:02;;;;;;;7.00;4.63;;;12.30;81.30;;;;;;5032256;28;20729;-74
2023/08/31 02:43:28;;;;;;;9.80;4.20;;;12.40;80.70;;;;;;5032306;28;20390;-73
2023/08/31 02:46:01;;;;;;;9.10;4.70;;;12.30;81.10;;;;;;5032554;28;20393;-74
2023/08/31 02:48:27;;;;;;;9.50;5.00;;;12.30;80.80;;;;;;5032411;28;20390;-75
2023/08/31 02:50:53;;;;;;;7.55;4.78;;;12.30;80.60;;;;;;5032361;28;20382;-74
2023/08/31 02:53:19;;;;;;;9.17;4.50;;;12.30;81.40;;;;;;5032202;28;20406;-76
2023/08/31 02:55:45;;;;;;;10.00;5.20;;;12.40;80.40;;;;;;5032423;28;20429;-76
2023/08/31 02:58:11;;;;;;;6.70;4.80;;;12.30;81.20;;;;;;5032092;28;20387;-76
2023/08/31 03:00:39;;;;;;;9.93;5.40;;;12.30;82.80;;;;;;5034036;28;20378;-76
2023/08/31 03:03:05;;;;;;;10.57;5.45;;;12.30;82.20;;;;;;5050690;28;20397;-75
2023/08/31 03:05:30;;;;;;;11.07;5.33;;;12.20;83.80;;;;;;5052236;28;20408;-75
2023/08/31 03:07:56;;;;;;;6.78;4.82;;;12.30;83.30;;;;;;5048905;28;20428;-75
2023/08/31 03:10:22;;;;;;;9.27;5.22;;;12.30;81.00;;;;;;5050298;28;20747;-75
2023/08/31 03:12:48;;;;;;;8.83;5.00;;;12.20;82.30;;;;;;5051086;28;20409;-75
2023/08/31 03:15:13;;;;;;;9.00;4.80;;;12.10;84.00;;;;;;5051130;28;20400;-75
2023/08/31 03:17:39;;;;;;;9.63;4.90;;;12.20;84.10;;;;;;5053541;28;20385;-77
2023/08/31 03:20:06;;;;;;;8.98;4.97;;;12.20;83.50;;;;;;5059585;28;20397;-77
2023/08/31 03:22:31;;;;;;;8.13;4.90;;;12.30;81.40;;;;;;5063271;28;20465;-77
2023/08/31 03:24:57;;;;;;;8.82;4.80;;;12.30;82.30;;;;;;5056220;28;20413;-76
2023/08/31 03:27:22;;;;;;;9.15;4.80;;;12.20;82.10;;;;;;5053535;28;20385;-77
2023/08/31 03:29:48;;;;;;;8.32;4.85;;;12.00;84.70;;;;;;5055158;28;20462;-77
2023/08/31 03:32:14;;;;;;;6.90;4.70;;;12.10;83.70;;;;;;5069734;28;20469;-75
2023/08/31 03:34:39;;;;;;;9.97;5.10;;;12.00;86.20;;;;;;5070902;28;20381;-77
2023/08/31 03:37:05;;;;;;;10.10;5.10;;;11.90;88.10;;;;;;5059747;28;20390;-76
2023/08/31 03:39:30;;;;;;;9.32;5.07;;;11.90;89.90;;;;;;5055308;28;20754;-77
2023/08/31 03:41:57;;;;;;;8.52;5.22;;;11.80;90.00;;;;;;5052797;28;20381;-76
2023/08/31 03:44:22;;;;;;;11.45;5.40;;;11.90;89.60;;;;;;5055306;28;20390;-76
2023/08/31 03:46:48;;;;;;;7.93;5.23;;;11.90;89.20;;;;;;5058439;28;20412;-77
2023/08/31 03:49:13;;;;;;;6.90;5.00;;;11.90;89.70;;;;;;5059993;28;20460;-76
2023/08/31 03:51:39;;;;;;;11.37;5.73;;;11.90;89.40;;;;;;5060610;28;20389;-76
2023/08/31 03:54:05;;;;;;;6.97;5.03;;;12.00;89.40;;;;;;5058898;28;20409;-76
2023/08/31 03:56:31;;;;;;;11.43;5.80;;;12.10;87.50;;;;;;5053602;28;20890;-76
2023/08/31 03:58:57;;;;;;;9.60;5.90;;;12.00;88.60;;;;;;5052103;28;20468;-77
2023/08/31 04:01:23;;;;;;;7.88;5.88;;;12.00;89.50;;;;;;5061638;28;20401;-77
2023/08/31 04:03:49;;;;;;;9.05;5.85;;;12.10;87.80;;;;;;5047046;28;20420;-77
2023/08/31 04:06:14;;;;;;;11.00;6.07;;;12.10;87.30;;;;;;5052322;28;20393;-76
2023/08/31 04:08:40;;;;;;;11.75;6.32;;;12.30;85.20;;;;;;5053431;28;20397;-77
2023/08/31 04:11:05;;;;;;;11.07;6.65;;;12.20;84.60;;;;;;5055629;28;20377;-77
2023/08/31 04:13:31;;;;;;;13.03;6.80;;;12.10;86.70;;;;;;5054232;28;20409;-77
2023/08/31 04:15:56;;;;;;;13.40;5.80;;;12.10;88.20;;;;;;5054007;28;20427;-77
2023/08/31 04:18:22;;;;;;;8.40;6.23;;;12.10;88.10;;;;;;5052964;28;20937;-76
2023/08/31 04:20:54;;;;;;;12.50;6.33;;;12.00;89.90;;;;;;5052894;28;20716;-76
2023/08/31 04:23:20;;;;;;;11.30;7.00;;;12.00;90.30;;;;;;5051500;28;20393;-76
2023/08/31 04:25:47;;;;;;;10.50;6.55;;;11.90;91.30;;;;;;5052808;28;20398;-77
2023/08/31 04:28:13;;;;;;;12.75;6.93;;;11.80;92.70;;;;;;5053321;28;20435;-76
2023/08/31 04:30:40;;;;;;;12.25;7.13;;;11.70;96.30;;;;;;5054330;28;20420;-77
2023/08/31 04:33:06;;;;;;;12.60;6.88;;;11.70;96.20;;;;;;5053877;28;20477;-77
2023/08/31 04:35:33;;;;;;;10.43;7.32;;;11.80;96.10;;;;;;5053127;28;20723;-77
2023/08/31 04:37:58;;;;;;;11.52;7.00;;;11.90;95.60;;;;;;5053795;28;20389;-76
2023/08/31 04:40:24;;;;;;;12.57;7.80;;;11.90;94.80;;;;;;5039187;28;20389;-77
2023/08/31 04:42:50;;;;;;;9.15;7.60;;;11.90;95.30;;;;;;5052887;28;20862;-76
2023/08/31 04:45:16;;;;;;;11.32;7.10;;;12.00;93.90;;;;;;5053229;28;20897;-77
2023/08/31 04:47:42;;;;;;;13.10;7.60;;;12.10;93.20;;;;;;5054305;28;20385;-77
2023/08/31 04:50:08;;;;;;;12.80;7.50;;;12.00;93.50;;;;;;5060524;28;20430;-77
2023/08/31 04:52:33;;;;;;;10.70;8.00;;;12.00;95.50;;;;;;5051122;28;20437;-76
2023/08/31 04:55:01;;;;;;;13.80;8.10;;;12.10;95.60;;;;;;5051988;28;20439;-76
2023/08/31 04:57:28;;;;;;;12.30;8.20;;;12.30;91.50;;;;;;5055941;28;20453;-78
2023/08/31 04:59:53;;;;;;;11.65;7.88;;;12.40;89.50;;;;;;5057768;28;20392;-77
2023/08/31 05:02:19;;;;;;;12.70;7.80;;;12.60;84.10;;;;;;5057785;28;20396;-77
2023/08/31 05:04:45;;;;;;;13.17;7.70;;;12.60;84.10;;;;;;5064398;28;20464;-76
2023/08/31 05:07:10;;;;;;;12.23;7.70;;;12.70;83.50;;;;;;5063366;28;20766;-77
2023/08/31 05:09:36;;;;;;;13.13;7.50;;;12.80;83.00;;;;;;5042360;28;20769;-77
2023/08/31 05:12:02;;;;;;;12.65;7.55;;;12.80;80.60;;;;;;5065236;28;20409;-77
2023/08/31 05:14:28;;;;;;;36.60;23.48;;;12.80;80.20;;;;;;5070264;28;20389;-77
2023/08/31 05:16:54;;;;;;;44.42;27.50;;;12.80;80.70;;;;;;5061338;28;20408;-77
2023/08/31 05:19:20;;;;;;;25.98;16.38;;;12.90;79.80;;;;;;5058020;28;20464;-79
2023/08/31 05:21:46;;;;;;;13.30;7.70;;;12.90;77.90;;;;;;5058480;28;20439;-76
2023/08/31 05:24:11;;;;;;;33.35;22.08;;;13.00;76.50;;;;;;5057255;28;20388;-77
2023/08/31 05:26:37;;;;;;;10.50;8.00;;;13.10;74.90;;;;;;5058088;28;20382;-79
2023/08/31 05:29:05;;;;;;;13.88;9.60;;;13.10;74.10;;;;;;5056603;28;20381;-77
2023/08/31 05:31:31;;;;;;;57.75;36.00;;;13.10;74.40;;;;;;5056320;28;20430;-78
2023/08/31 05:33:57;;;;;;;20.63;12.75;;;13.10;76.60;;;;;;5055454;28;20928;-77
2023/08/31 05:36:22;;;;;;;18.30;9.43;;;13.10;75.70;;;;;;5058105;28;20412;-76
2023/08/31 05:38:48;;;;;;;74.83;50.30;;;13.10;75.10;;;;;;5055689;28;20395;-77
2023/08/31 05:41:14;;;;;;;14.53;10.70;;;13.10;78.60;;;;;;5056259;28;20492;-76
2023/08/31 05:43:42;;;;;;;31.10;20.93;;;13.10;74.70;;;;;;5056952;28;20389;-78
2023/08/31 05:46:08;;;;;;;19.30;11.07;;;13.20;74.90;;;;;;5059192;28;20463;-77
2023/08/31 05:48:36;;;;;;;17.05;11.23;;;13.00;75.70;;;;;;5056965;28;20382;-77
2023/08/31 05:51:03;;;;;;;15.35;8.63;;;13.00;76.20;;;;;;5063590;28;20819;-77
2023/08/31 05:53:31;;;;;;;23.50;15.45;;;12.90;78.30;;;;;;5064692;28;20752;-77
2023/08/31 05:56:04;;;;;;;24.55;11.35;;;12.90;78.70;;;;;;5058694;28;20450;-78
2023/08/31 05:58:32;;;;;;;14.50;8.57;;;13.00;78.30;;;;;;5057507;28;20381;-78
2023/08/31 06:00:57;;;;;;;17.40;12.00;;;13.00;77.50;;;;;;5057449;28;20382;-77
2023/08/31 06:03:23;;;;;;;20.35;13.13;;;13.10;76.90;;;;;;5056420;28;20382;-77
2023/08/31 06:05:48;;;;;;;15.63;10.63;;;13.20;75.90;;;;;;5061567;28;20397;-77
2023/08/31 06:08:14;;;;;;;17.88;10.23;;;13.20;75.80;;;;;;5055989;28;20429;-79
2023/08/31 06:10:39;;;;;;;13.97;8.20;;;13.30;75.30;;;;;;5059785;28;20402;-77
2023/08/31 06:13:05;;;;;;;12.90;8.73;;;13.30;74.00;;;;;;5057214;28;20409;-78
2023/08/31 06:15:31;;;;;;;19.95;12.68;;;13.30;73.70;;;;;;5055865;28;20388;-77
2023/08/31 06:17:57;;;;;;;15.00;8.70;;;13.30;73.90;;;;;;5056222;28;20914;-76
2023/08/31 06:20:23;;;;;;;13.88;7.40;;;13.30;73.00;;;;;;5059226;28;20382;-77
2023/08/31 06:22:49;;;;;;;17.08;8.38;;;13.50;71.00;;;;;;5044229;28;20385;-77
2023/08/31 06:25:16;;;;;;;13.27;7.40;;;13.50;71.40;;;;;;5063679;28;20429;-77
2023/08/31 06:27:45;;;;;;;16.15;7.53;;;13.50;70.50;;;;;;5061407;28;20394;-77
2023/08/31 06:30:15;;;;;;;10.60;7.50;;;13.60;70.80;;;;;;5054399;28;20806;-75
2023/08/31 06:32:45;;;;;;;17.02;8.50;;;13.70;68.50;;;;;;5059174;28;20821;-76
2023/08/31 06:35:20;;;;;;;17.63;8.20;;;13.70;70.00;;;;;;5056947;28;20377;-77
2023/08/31 06:37:46;;;;;;;10.70;7.20;;;13.70;69.80;;;;;;5055198;28;20386;-76
2023/08/31 06:40:12;;;;;;;17.23;7.70;;;13.70;68.30;;;;;;5055797;28;20381;-76
2023/08/31 06:42:38;;;;;;;13.00;6.90;;;13.90;67.60;;;;;;5055940;28;20591;-76
2023/08/31 06:45:05;;;;;;;16.13;7.40;;;14.00;65.50;;;;;;5061780;28;20441;-76
2023/08/31 06:47:31;;;;;;;11.45;6.82;;;14.10;63.70;;;;;;5063538;28;20381;-77
2023/08/31 06:49:57;;;;;;;12.07;6.97;;;14.10;65.50;;;;;;5047751;28;20400;-77
2023/08/31 06:52:23;;;;;;;12.05;7.00;;;14.20;64.20;;;;;;5067643;28;20405;-77
2023/08/31 06:54:49;;;;;;;13.10;6.70;;;14.20;64.90;;;;;;5067149;28;20462;-77
2023/08/31 06:57:15;;;;;;;12.93;7.33;;;14.30;62.30;;;;;;5066429;28;20437;-77
2023/08/31 06:59:41;;;;;;;11.83;6.60;;;14.30;62.00;;;;;;5060098;28;20382;-78
2023/08/31 07:02:06;;;;;;;13.63;6.47;;;14.40;62.90;;;;;;5057677;28;20394;-77
2023/08/31 07:04:32;;;;;;;11.70;6.17;;;14.50;60.00;;;;;;5062974;28;20389;-77
2023/08/31 07:06:57;;;;;;;11.17;6.20;;;14.50;59.60;;;;;;5064565;28;20470;-77
2023/08/31 07:09:23;;;;;;;9.73;5.90;;;14.60;59.50;;;;;;5064138;28;20421;-77
2023/08/31 07:11:48;;;;;;;14.93;6.20;;;14.70;58.80;;;;;;5061799;28;20877;-76
2023/08/31 07:14:14;;;;;;;12.13;6.67;;;14.80;58.50;;;;;;5065670;28;20416;-76
2023/08/31 07:16:40;;;;;;;15.20;5.90;;;14.80;57.80;;;;;;5057221;28;20488;-78
2023/08/31 07:19:05;;;;;;;11.13;5.70;;;14.80;56.30;;;;;;5053732;28;20855;-77
2023/08/31 07:21:31;;;;;;;12.17;6.20;;;14.90;56.40;;;;;;5054541;28;20369;-77
2023/08/31 07:23:57;;;;;;;8.65;5.70;;;15.00;56.10;;;;;;5055282;28;20386;-77
2023/08/31 07:26:22;;;;;;;15.05;6.50;;;15.00;55.80;;;;;;5053270;28;20409;-76
2023/08/31 07:28:48;;;;;;;8.03;5.40;;;15.10;55.10;;;;;;5053083;28;20385;-77
2023/08/31 07:31:15;;;;;;;11.30;5.50;;;15.20;54.90;;;;;;5036278;28;20432;-77
2023/08/31 07:33:40;;;;;;;8.85;5.75;;;15.30;53.50;;;;;;5054162;28;20405;-76
2023/08/31 07:36:06;;;;;;;9.83;5.80;;;15.30;54.00;;;;;;5054248;28;20392;-77
2023/08/31 07:38:32;;;;;;;10.00;5.30;;;15.40;52.70;;;;;;5053221;28;20416;-77
2023/08/31 07:40:59;;;;;;;9.43;6.10;;;15.50;52.20;;;;;;5051235;28;20886;-77
2023/08/31 07:43:25;;;;;;;10.63;6.10;;;15.60;52.70;;;;;;5053464;28;20481;-76
2023/08/31 07:45:51;;;;;;;12.95;5.70;;;15.70;51.30;;;;;;5037535;28;20435;-78
2023/08/31 07:48:17;;;;;;;10.53;5.30;;;15.80;50.70;;;;;;5054775;28;20464;-78
2023/08/31 07:50:43;;;;;;;10.23;5.70;;;15.80;50.00;;;;;;5054975;28;20378;-78
2023/08/31 07:53:09;;;;;;;10.03;5.27;;;15.90;49.40;;;;;;5051971;28;20480;-77
2023/08/31 07:55:37;;;;;;;9.93;5.83;;;16.00;49.30;;;;;;5034207;28;20794;-77
2023/08/31 07:58:03;;;;;;;6.93;4.50;;;16.00;48.30;;;;;;5053273;28;20405;-77
2023/08/31 08:00:29;;;;;;;9.35;4.72;;;16.10;48.40;;;;;;5054792;28;20381;-77
2023/08/31 08:02:54;;;;;;;10.60;4.70;;;16.10;49.50;;;;;;5053380;28;20397;-77
2023/08/31 08:05:20;;;;;;;10.73;4.53;;;16.30;48.30;;;;;;5054640;28;20386;-77
2023/08/31 08:07:45;;;;;;;7.97;4.30;;;16.40;47.00;;;;;;5054271;28;20404;-76
2023/08/31 08:10:12;;;;;;;7.68;4.65;;;16.50;45.70;;;;;;5053972;28;20382;-78
2023/08/31 08:12:39;;;;;;;8.77;4.40;;;16.60;45.20;;;;;;5052802;28;20479;-77
2023/08/31 08:15:09;;;;;;;7.10;3.90;;;16.60;45.60;;;;;;5036362;28;20393;-78
2023/08/31 08:17:35;;;;;;;11.10;4.57;;;16.70;45.00;;;;;;5055591;28;20388;-78
2023/08/31 08:20:00;;;;;;;9.85;4.40;;;16.90;44.20;;;;;;5054336;28;20746;-77
2023/08/31 08:22:26;;;;;;;14.73;4.90;;;17.00;43.90;;;;;;5058450;28;20403;-77
2023/08/31 08:24:51;;;;;;;10.77;4.40;;;17.10;43.80;;;;;;5059111;28;20392;-78
2023/08/31 08:27:20;;;;;;;9.57;4.22;;;17.10;43.50;;;;;;5056031;28;20397;-76
2023/08/31 08:29:46;;;;;;;8.38;4.20;;;17.10;42.30;;;;;;5034758;28;20801;-77
2023/08/31 08:32:12;;;;;;;9.55;4.20;;;17.20;42.50;;;;;;5035419;28;20412;-77
2023/08/31 08:34:38;;;;;;;6.70;3.80;;;17.20;42.40;;;;;;5054802;28;20759;-77
2023/08/31 08:37:04;;;;;;;7.73;3.70;;;17.40;41.50;;;;;;5053645;28;20389;-77
2023/08/31 08:39:30;;;;;;;8.40;4.38;;;17.40;40.50;;;;;;5034497;28;20751;-77
2023/08/31 08:41:58;;;;;;;8.75;4.00;;;17.40;40.70;;;;;;5052123;28;20397;-77
2023/08/31 08:44:25;;;;;;;9.20;3.50;;;17.70;40.30;;;;;;5056224;28;20378;-77
2023/08/31 08:46:51;;;;;;;7.07;3.75;;;17.60;39.20;;;;;;5054657;28;20385;-78
2023/08/31 08:49:18;;;;;;;7.63;3.55;;;17.60;38.00;;;;;;5056914;28;20381;-77
2023/08/31 08:51:46;;;;;;;9.40;4.30;;;17.60;39.40;;;;;;5055942;28;20374;-78
2023/08/31 08:54:13;;;;;;;6.83;3.83;;;17.70;39.40;;;;;;5056941;28;20382;-76
2023/08/31 08:56:38;;;;;;;6.10;3.38;;;17.90;38.20;;;;;;5060767;28;20444;-76
2023/08/31 08:59:05;;;;;;;6.20;3.60;;;18.20;37.90;;;;;;5041206;28;20446;-78
2023/08/31 09:01:32;;;;;;;10.60;4.20;;;18.30;37.30;;;;;;5053798;28;20407;-77
2023/08/31 09:03:58;;;;;;;7.70;3.53;;;18.40;36.80;;;;;;5058772;28;20392;-78
2023/08/31 09:06:24;;;;;;;6.65;3.70;;;18.40;35.30;;;;;;5062625;28;20476;-77
2023/08/31 09:08:56;;;;;;;6.10;3.80;;;18.50;35.30;;;;;;5062303;28;20885;-76
2023/08/31 09:11:22;;;;;;;7.90;3.00;;;18.60;35.40;;;;;;5060899;28;20458;-76
2023/08/31 09:13:49;;;;;;;7.43;3.33;;;18.60;33.80;;;;;;5059517;28;20432;-78
2023/08/31 09:16:25;;;;;;;6.15;3.38;;;18.60;33.40;;;;;;5057874;28;20415;-77
2023/08/31 09:18:50;;;;;;;7.43;3.47;;;18.60;33.10;;;;;;5062615;28;20384;-76
2023/08/31 09:21:16;;;;;;;6.05;3.20;;;18.60;33.30;;;;;;5062956;28;20393;-76
2023/08/31 09:23:42;;;;;;;9.02;3.90;;;18.60;34.00;;;;;;5061657;28;20432;-76
2023/08/31 09:26:07;;;;;;;7.97;3.40;;;18.70;33.10;;;;;;5058430;28;20853;-77
2023/08/31 09:28:33;;;;;;;12.07;3.30;;;18.80;31.30;;;;;;5059910;28;20396;-77
2023/08/31 09:31:07;;;;;;;6.57;2.85;;;18.80;30.60;;;;;;5059362;28;20389;-78
2023/08/31 09:33:35;;;;;;;6.78;3.15;;;18.90;31.90;;;;;;5060482;28;20408;-76
2023/08/31 09:36:03;;;;;;;8.73;3.20;;;19.20;31.60;;;;;;5062285;28;20389;-78
2023/08/31 09:38:29;;;;;;;6.45;2.95;;;19.60;30.00;;;;;;5043406;28;20439;-76
2023/08/31 09:41:05;;;;;;;7.30;3.47;;;19.90;28.10;;;;;;5062303;28;20390;-76
2023/08/31 09:43:31;;;;;;;6.28;3.60;;;20.10;26.40;;;;;;5059474;28;20439;-77
2023/08/31 09:45:57;;;;;;;4.70;2.67;;;20.00;27.10;;;;;;5060097;28;20466;-77
2023/08/31 09:48:23;;;;;;;6.10;3.20;;;20.20;27.20;;;;;;5066744;28;20385;-76
2023/08/31 09:50:51;;;;;;;5.57;2.83;;;20.30;26.70;;;;;;5067963;28;20396;-77
2023/08/31 09:53:17;;;;;;;9.90;3.00;;;20.30;26.50;;;;;;5062739;28;20412;-76
2023/08/31 09:55:43;;;;;;;5.03;2.53;;;20.10;26.80;;;;;;5059044;28;20415;-76
2023/08/31 09:58:09;;;;;;;5.43;2.90;;;19.90;25.90;;;;;;5064607;28;20381;-78
2023/08/31 10:00:37;;;;;;;6.38;3.08;;;19.90;27.20;;;;;;5060400;28;20393;-78
2023/08/31 10:03:04;;;;;;;6.93;2.80;;;19.80;27.50;;;;;;5062701;28;20382;-78
2023/08/31 10:05:32;;;;;;;6.53;2.90;;;20.10;27.00;;;;;;5064417;28;20468;-79
2023/08/31 10:07:58;;;;;;;8.40;3.00;;;20.30;24.40;;;;;;5060086;28;20451;-78
2023/08/31 10:10:24;;;;;;;10.07;3.03;;;20.40;24.00;;;;;;5061404;28;20882;-78
2023/08/31 10:12:51;;;;;;;5.70;2.87;;;20.80;24.20;;;;;;5058233;28;20496;-78
2023/08/31 10:15:18;;;;;;;6.18;2.63;;;21.10;22.80;;;;;;5057912;28;20377;-77
2023/08/31 10:17:44;;;;;;;11.13;2.72;;;21.20;21.70;;;;;;5061275;28;20412;-77
2023/08/31 10:20:12;;;;;;;5.90;2.30;;;21.30;21.80;;;;;;5064420;28;20899;-76
2023/08/31 10:22:38;;;;;;;7.90;2.90;;;21.40;22.50;;;;;;5059244;28;20388;-77
2023/08/31 10:25:06;;;;;;;9.85;3.38;;;21.30;23.00;;;;;;5062008;28;20807;-76
2023/08/31 10:27:47;;;;;;;6.70;3.20;;;21.30;22.30;;;;;;5061766;28;20436;-77
2023/08/31 10:30:16;;;;;;;9.40;3.20;;;21.10;22.40;;;;;;5061296;28;20754;-78
2023/08/31 10:32:41;;;;;;;8.27;3.10;;;21.10;22.70;;;;;;5059631;28;20432;-78
2023/08/31 10:35:10;;;;;;;7.95;3.28;;;20.90;23.50;;;;;;5060274;28;20393;-76
2023/08/31 10:37:35;;;;;;;9.63;3.15;;;20.80;24.40;;;;;;5063919;28;20441;-77
2023/08/31 10:40:11;;;;;;;5.30;3.05;;;20.60;24.50;;;;;;5063197;28;20382;-77
2023/08/31 10:42:47;;;;;;;8.18;2.92;;;20.20;25.60;;;;;;5068979;28;20388;-77
2023/08/31 10:45:20;;;;;;;5.53;3.03;;;20.00;25.90;;;;;;5070383;28;20472;-77
2023/08/31 10:47:47;;;;;;;10.02;2.80;;;19.80;25.80;;;;;;5070301;28;20374;-77
2023/08/31 10:50:21;;;;;;;7.03;3.05;;;19.80;26.30;;;;;;5065736;28;20399;-77
2023/08/31 10:52:47;;;;;;;4.30;2.70;;;19.80;25.10;;;;;;5057777;28;20448;-77
2023/08/31 10:55:13;;;;;;;9.65;2.85;;;20.00;25.70;;;;;;5055128;28;20461;-77
2023/08/31 10:57:41;;;;;;;7.80;2.92;;;19.90;25.20;;;;;;5056042;28;20377;-77
2023/08/31 11:00:08;;;;;;;6.20;2.60;;;19.90;25.40;;;;;;5057685;28;20745;-77
2023/08/31 11:02:44;;;;;;;5.78;2.60;;;20.20;24.20;;;;;;5054826;28;20723;-79
2023/08/31 11:05:17;;;;;;;6.97;2.60;;;20.30;22.50;;;;;;5053573;28;20389;-77
2023/08/31 11:07:50;;;;;;;9.52;2.70;;;20.20;21.60;;;;;;5058251;28;20385;-76
2023/08/31 11:10:19;;;;;;;5.75;2.50;;;20.00;23.10;;;;;;5060591;28;20381;-78
2023/08/31 11:12:50;;;;;;;6.65;2.70;;;20.10;24.00;;;;;;5058304;28;20489;-77
2023/08/31 11:15:18;;;;;;;6.75;2.90;;;20.20;23.30;;;;;;5056967;28;20373;-77
2023/08/31 11:17:44;;;;;;;6.13;3.15;;;20.30;23.90;;;;;;5039141;28;20392;-77
2023/08/31 11:20:16;;;;;;;6.13;3.30;;;20.10;23.90;;;;;;5054758;28;20463;-77
2023/08/31 11:22:43;;;;;;;6.20;2.60;;;20.00;23.60;;;;;;5061291;28;20389;-77
2023/08/31 11:25:11;;;;;;;7.30;2.67;;;19.90;24.00;;;;;;5060953;28;20377;-76
2023/08/31 11:27:37;;;;;;;7.05;2.55;;;20.00;22.80;;;;;;5058925;28;20397;-78
2023/08/31 11:30:10;;;;;;;9.25;2.53;;;20.00;23.90;;;;;;5040582;28;20923;-78
2023/08/31 11:32:36;;;;;;;5.45;2.33;;;20.30;24.00;;;;;;5057982;28;20878;-78
2023/08/31 11:35:03;;;;;;;11.10;2.80;;;20.60;22.50;;;;;;5057878;28;20389;-78
2023/08/31 11:37:29;;;;;;;5.55;2.50;;;21.00;22.20;;;;;;5058530;28;20430;-79
2023/08/31 11:39:55;;;;;;;5.40;2.60;;;21.30;19.90;;;;;;5059394;28;20397;-78
2023/08/31 11:42:21;;;;;;;9.32;3.00;;;21.50;19.90;;;;;;5056074;28;20472;-78
2023/08/31 11:44:48;;;;;;;7.10;2.90;;;21.60;20.20;;;;;;5056437;28;20449;-76
2023/08/31 11:47:15;;;;;;;6.73;2.70;;;21.60;20.30;;;;;;5056936;28;20430;-78
2023/08/31 11:49:42;;;;;;;7.03;2.63;;;21.70;20.50;;;;;;5055378;28;20392;-77
2023/08/31 11:52:11;;;;;;;7.93;2.78;;;21.40;20.70;;;;;;5053899;28;20487;-78
2023/08/31 11:54:39;;;;;;;5.82;3.10;;;21.10;21.80;;;;;;5055478;28;20728;-76
2023/08/31 11:57:08;;;;;;;5.15;2.78;;;20.80;22.00;;;;;;5053464;28;20476;-77
2023/08/31 11:59:36;;;;;;;8.67;3.30;;;20.60;26.10;;;;;;5054595;28;20389;-77
2023/08/31 12:02:01;;;;;;;22.55;5.72;;;17.70;69.90;;;;;;5052058;28;20388;-77
2023/08/31 12:04:27;;;;;;;2.20;1.10;;;15.50;99.90;;;;;;5051900;28;20386;-76
2023/08/31 12:07:00;;;;;;;1.00;0.80;;;15.00;99.90;;;;;;5050327;28;20397;-76
2023/08/31 12:09:28;;;;;;;1.10;0.80;;;14.90;99.90;;;;;;5051478;28;20450;-76
2023/08/31 12:11:53;;;;;;;0.80;0.50;;;15.20;99.90;;;;;;5051192;28;20385;-76
2023/08/31 12:14:21;;;;;;;1.30;0.88;;;15.40;99.90;;;;;;5050532;28;20420;-76
2023/08/31 12:16:47;;;;;;;1.10;0.60;;;15.60;99.90;;;;;;5051374;28;20928;-76
2023/08/31 12:19:13;;;;;;;0.80;0.60;;;16.10;99.90;;;;;;5052344;28;20874;-77
2023/08/31 12:21:39;;;;;;;1.20;0.90;;;16.70;99.90;;;;;;5056012;28;20453;-75
2023/08/31 12:24:06;;;;;;;1.30;1.20;;;17.00;99.90;;;;;;5052744;28;20393;-76
2023/08/31 12:26:32;;;;;;;0.80;0.80;;;17.50;99.90;;;;;;5033511;28;20405;-75
2023/08/31 12:28:57;;;;;;;1.60;0.90;;;17.70;99.90;;;;;;5051821;28;20977;-76
2023/08/31 12:31:24;;;;;;;0.88;0.80;;;17.90;99.90;;;;;;5050699;28;20390;-76
2023/08/31 12:33:49;;;;;;;1.00;0.90;;;18.10;99.90;;;;;;5050593;28;20432;-76
2023/08/31 12:36:15;;;;;;;2.30;1.00;;;17.60;99.90;;;;;;5032311;28;20390;-77
2023/08/31 12:38:41;;;;;;;2.10;0.95;;;17.40;99.90;;;;;;5050420;28;20873;-77
2023/08/31 12:41:07;;;;;;;0.80;0.60;;;17.50;99.90;;;;;;5050432;28;20794;-76
2023/08/31 12:43:33;;;;;;;1.20;0.90;;;17.40;99.90;;;;;;5032313;28;20838;-76